Time;durP1;ratioP1;P1;durP2;ratioP2;P2;SDS_P1;SDS_P2;PMS_P1;PMS_P2;Temp;Humidity;BMP_temperature;BMP_pressure;BME280_temperature;BME280_humidity;BME280_pressure;Samples;Min_cycle;Max_cycle;Signal;HPM_P1;HPM_P2
2024/02/04 00:01:57;;;;;;;20.87;9.47;;;12.00;99.90;;;;;;7286882;19;20267;-85
2024/02/04 00:04:24;;;;;;;26.47;8.57;;;12.10;99.90;;;;;;7284466;19;20209;-85
2024/02/04 00:06:49;;;;;;;19.13;8.90;;;12.10;99.90;;;;;;7284989;19;20261;-84
2024/02/04 00:09:15;;;;;;;19.17;8.60;;;12.10;99.90;;;;;;7307292;19;20723;-84
2024/02/04 00:11:41;;;;;;;21.47;9.07;;;12.10;99.90;;;;;;7285122;19;20759;-83
2024/02/04 00:14:07;;;;;;;21.23;8.17;;;12.10;99.90;;;;;;7283686;19;20223;-84
2024/02/04 00:16:33;;;;;;;22.13;8.77;;;12.10;99.90;;;;;;7284244;19;20198;-84
2024/02/04 00:18:58;;;;;;;17.93;7.93;;;12.10;99.90;;;;;;7283557;19;20260;-85
2024/02/04 00:21:24;;;;;;;20.10;7.90;;;12.10;99.90;;;;;;7283688;19;20203;-83
2024/02/04 00:23:50;;;;;;;17.83;7.57;;;12.10;99.90;;;;;;7284257;19;20558;-83
2024/02/04 00:26:16;;;;;;;17.27;7.50;;;12.10;99.90;;;;;;7305542;19;20204;-84
2024/02/04 00:28:43;;;;;;;15.47;7.10;;;12.20;99.90;;;;;;7281260;19;20278;-85
2024/02/04 00:31:11;;;;;;;15.47;6.83;;;12.30;99.90;;;;;;7284878;19;20717;-83
2024/02/04 00:33:37;;;;;;;17.63;7.53;;;12.30;99.90;;;;;;7284628;19;20212;-84
2024/02/04 00:36:03;;;;;;;14.77;6.80;;;12.30;99.90;;;;;;7283652;19;20184;-84
2024/02/04 00:38:29;;;;;;;16.33;6.97;;;12.30;99.90;;;;;;7289622;19;20189;-83
2024/02/04 00:40:56;;;;;;;15.37;6.87;;;12.20;99.90;;;;;;7289637;19;20640;-84
2024/02/04 00:43:22;;;;;;;12.13;6.37;;;12.30;99.90;;;;;;7284089;19;20189;-84
2024/02/04 00:45:48;;;;;;;14.20;6.73;;;12.20;99.90;;;;;;7293742;19;20284;-83
2024/02/04 00:48:13;;;;;;;15.73;7.17;;;12.20;99.90;;;;;;7303782;19;20288;-84
2024/02/04 00:50:39;;;;;;;17.57;7.60;;;12.20;99.90;;;;;;7282523;19;20184;-84
2024/02/04 00:53:05;;;;;;;17.63;7.40;;;12.20;99.90;;;;;;7284333;19;20194;-83
2024/02/04 00:55:31;;;;;;;16.63;7.10;;;12.10;99.90;;;;;;7284196;19;20185;-84
2024/02/04 00:58:00;;;;;;;13.67;7.60;;;12.10;99.90;;;;;;7283691;19;20214;-83
2024/02/04 01:00:25;;;;;;;16.60;7.20;;;12.10;99.90;;;;;;7283109;19;20201;-84
2024/02/04 01:02:51;;;;;;;16.40;7.37;;;12.10;99.90;;;;;;7289714;19;20184;-85
2024/02/04 01:05:17;;;;;;;18.23;8.20;;;12.10;99.90;;;;;;7308214;19;20200;-84
2024/02/04 01:07:43;;;;;;;17.27;7.70;;;12.10;99.90;;;;;;7301279;19;20192;-85
2024/02/04 01:10:10;;;;;;;14.83;7.10;;;12.10;99.90;;;;;;7290453;19;20185;-85
2024/02/04 01:12:35;;;;;;;17.53;7.90;;;12.10;99.90;;;;;;7288276;19;20545;-84
2024/02/04 01:15:03;;;;;;;17.83;7.60;;;12.10;99.90;;;;;;7289120;19;20197;-86
2024/02/04 01:17:29;;;;;;;16.67;7.97;;;12.00;99.90;;;;;;7287302;19;20268;-84
2024/02/04 01:19:54;;;;;;;16.30;8.10;;;11.90;99.90;;;;;;7288906;19;20297;-85
2024/02/04 01:22:25;;;;;;;19.43;8.57;;;12.00;99.90;;;;;;7289459;19;20252;-84
2024/02/04 01:24:50;;;;;;;16.50;7.93;;;12.00;99.90;;;;;;7289590;19;20221;-84
2024/02/04 01:27:16;;;;;;;16.53;8.30;;;12.00;99.90;;;;;;7312055;19;20185;-84
2024/02/04 01:29:42;;;;;;;17.53;8.57;;;12.10;99.90;;;;;;7289925;19;20197;-84
2024/02/04 01:32:08;;;;;;;20.17;8.60;;;12.10;99.90;;;;;;7289815;19;20269;-85
2024/02/04 01:34:33;;;;;;;16.17;8.80;;;12.10;99.90;;;;;;7289621;19;20185;-85
2024/02/04 01:36:59;;;;;;;18.80;8.63;;;12.10;99.90;;;;;;7288711;19;20573;-84
2024/02/04 01:39:25;;;;;;;17.90;8.67;;;12.00;99.90;;;;;;7288501;19;20185;-85
2024/02/04 01:41:51;;;;;;;20.23;9.00;;;12.10;99.90;;;;;;7287577;19;20185;-83
2024/02/04 01:44:18;;;;;;;19.80;8.30;;;12.10;99.90;;;;;;7306258;19;20291;-82
2024/02/04 01:46:45;;;;;;;22.00;9.63;;;12.10;99.90;;;;;;7315320;19;20176;-83
2024/02/04 01:49:10;;;;;;;20.80;9.10;;;12.20;99.90;;;;;;7291854;19;20188;-83
2024/02/04 01:51:36;;;;;;;19.57;8.93;;;12.20;99.90;;;;;;7291879;19;20188;-84
2024/02/04 01:54:04;;;;;;;20.67;9.30;;;12.10;99.90;;;;;;7290076;19;20212;-84
2024/02/04 01:56:30;;;;;;;19.17;8.40;;;12.00;99.90;;;;;;7288081;19;20249;-84
2024/02/04 01:58:59;;;;;;;19.23;8.80;;;12.00;99.90;;;;;;7287351;19;20652;-84
2024/02/04 02:01:26;;;;;;;18.97;8.27;;;12.10;99.90;;;;;;7288882;19;20222;-84
2024/02/04 02:03:52;;;;;;;18.93;8.50;;;12.00;99.90;;;;;;7287276;19;20185;-84
2024/02/04 02:06:18;;;;;;;20.97;8.53;;;12.10;99.90;;;;;;7305062;19;20189;-84
2024/02/04 02:08:45;;;;;;;22.70;8.40;;;12.10;99.90;;;;;;7318975;19;20198;-84
2024/02/04 02:11:32;;;;;;;16.87;8.33;;;12.10;99.90;;;;;;7287534;19;20196;-85
2024/02/04 02:14:02;;;;;;;18.10;8.40;;;12.10;99.90;;;;;;7183629;19;2005069;-84
2024/02/04 02:16:32;;;;;;;19.00;8.13;;;12.20;99.90;;;;;;7286256;19;20188;-84
2024/02/04 02:19:08;;;;;;;22.50;8.03;;;12.10;99.90;;;;;;7287797;19;20200;-84
2024/02/04 02:22:03;;;;;;;19.70;8.73;;;12.10;99.90;;;;;;7285255;19;20233;-84
2024/02/04 02:24:42;;;;;;;23.23;8.27;;;12.10;99.90;;;;;;7185501;19;2004458;-84
2024/02/04 02:27:08;;;;;;;19.93;7.83;;;12.00;99.90;;;;;;7287128;19;20266;-85
2024/02/04 02:29:35;;;;;;;25.77;8.83;;;12.00;99.90;;;;;;7287948;19;20245;-85
2024/02/04 02:32:03;;;;;;;23.20;8.53;;;12.10;99.90;;;;;;7289098;19;20189;-85
2024/02/04 02:34:30;;;;;;;21.67;8.23;;;12.10;99.90;;;;;;7287143;19;20189;-85
2024/02/04 02:37:34;;;;;;;27.33;8.67;;;12.00;99.90;;;;;;7288152;19;20188;-84
2024/02/04 02:40:19;;;;;;;20.40;8.20;;;12.20;99.90;;;;;;7186228;19;2004449;-84
2024/02/04 02:42:46;;;;;;;22.83;8.23;;;12.20;99.90;;;;;;7288526;19;20193;-85
2024/02/04 02:45:13;;;;;;;26.83;8.03;;;12.20;99.90;;;;;;7291667;19;20225;-84
2024/02/04 02:47:40;;;;;;;23.97;8.53;;;12.20;99.90;;;;;;7289795;19;20953;-85
2024/02/04 02:50:07;;;;;;;24.00;7.80;;;12.20;99.90;;;;;;7284814;19;20187;-85
2024/02/04 02:52:33;;;;;;;21.07;8.33;;;12.20;99.90;;;;;;7285089;19;20189;-85
2024/02/04 02:54:59;;;;;;;27.90;8.33;;;12.20;99.90;;;;;;7287573;19;20222;-84
2024/02/04 02:57:25;;;;;;;24.23;8.03;;;12.20;99.90;;;;;;7286724;19;20194;-85
2024/02/04 02:59:51;;;;;;;22.37;8.20;;;12.20;99.90;;;;;;7286231;19;20563;-85
2024/02/04 03:02:17;;;;;;;22.47;8.20;;;12.30;99.90;;;;;;7308862;19;20193;-85
2024/02/04 03:04:43;;;;;;;22.30;8.90;;;12.30;99.90;;;;;;7287841;19;20196;-84
2024/02/04 03:07:09;;;;;;;21.37;8.10;;;12.20;99.90;;;;;;7284718;19;20185;-84
2024/02/04 03:09:35;;;;;;;21.77;8.67;;;12.30;99.90;;;;;;7283535;19;20195;-84
2024/02/04 03:12:00;;;;;;;21.33;7.67;;;12.10;99.90;;;;;;7286831;19;20774;-84
2024/02/04 03:14:26;;;;;;;17.40;7.57;;;12.10;99.90;;;;;;7284001;19;20219;-84
2024/02/04 03:16:52;;;;;;;23.10;7.40;;;12.10;99.90;;;;;;7285066;19;20197;-84
2024/02/04 03:19:18;;;;;;;17.67;7.13;;;12.10;99.90;;;;;;7301464;19;20181;-83
2024/02/04 03:21:43;;;;;;;21.37;7.83;;;12.10;99.90;;;;;;7299490;19;20196;-85
2024/02/04 03:24:09;;;;;;;14.23;7.17;;;12.10;99.90;;;;;;7281980;19;20300;-84
2024/02/04 03:26:35;;;;;;;22.13;6.47;;;12.10;99.90;;;;;;7286263;19;20212;-85
2024/02/04 03:29:04;;;;;;;16.03;6.63;;;12.00;99.90;;;;;;7286213;19;20649;-85
2024/02/04 03:31:31;;;;;;;14.47;6.10;;;11.90;99.90;;;;;;7287181;19;20182;-85
2024/02/04 03:33:57;;;;;;;18.60;7.13;;;11.90;99.90;;;;;;7287432;19;20190;-85
2024/02/04 03:36:24;;;;;;;17.27;6.97;;;12.00;99.90;;;;;;7298060;19;20181;-85
2024/02/04 03:38:51;;;;;;;17.47;7.23;;;12.00;99.90;;;;;;7285827;19;20188;-84
2024/02/04 03:41:17;;;;;;;17.47;7.10;;;12.00;99.90;;;;;;7305655;19;20181;-85
2024/02/04 03:43:42;;;;;;;19.70;7.83;;;12.00;99.90;;;;;;7284763;19;20195;-85
2024/02/04 03:46:12;;;;;;;18.17;6.87;;;12.00;99.90;;;;;;7283420;19;20267;-85
2024/02/04 03:48:38;;;;;;;21.10;7.00;;;12.10;99.90;;;;;;7281771;19;20197;-85
2024/02/04 03:51:06;;;;;;;20.13;6.50;;;12.10;99.90;;;;;;7281904;19;20181;-84
2024/02/04 03:53:33;;;;;;;16.60;6.87;;;12.10;99.90;;;;;;7282569;19;20196;-85
2024/02/04 03:55:58;;;;;;;15.37;6.53;;;12.10;99.90;;;;;;7284088;19;20191;-84
2024/02/04 03:58:29;;;;;;;16.33;6.93;;;12.20;99.90;;;;;;7283627;19;20181;-85
2024/02/04 04:00:58;;;;;;;22.13;7.07;;;12.20;99.90;;;;;;7286140;19;20185;-85
2024/02/04 04:03:24;;;;;;;23.40;7.03;;;12.20;99.90;;;;;;7285547;19;20216;-85
2024/02/04 04:05:50;;;;;;;16.37;6.47;;;12.20;99.90;;;;;;7286212;19;20196;-85
2024/02/04 04:08:17;;;;;;;21.83;7.30;;;12.30;99.90;;;;;;7304482;19;20199;-86
2024/02/04 04:10:43;;;;;;;15.57;6.90;;;12.20;99.90;;;;;;7286077;19;20185;-84
2024/02/04 04:13:09;;;;;;;19.13;7.20;;;12.10;99.90;;;;;;7283871;19;20193;-85
2024/02/04 04:15:35;;;;;;;18.97;6.87;;;12.20;99.90;;;;;;7284201;19;20245;-85
2024/02/04 04:18:01;;;;;;;16.40;6.83;;;12.20;99.90;;;;;;7284786;19;20212;-85
2024/02/04 04:20:26;;;;;;;19.60;7.33;;;12.20;99.90;;;;;;7285504;19;20189;-85
2024/02/04 04:22:52;;;;;;;17.43;7.07;;;12.30;99.90;;;;;;7284536;19;20193;-85
2024/02/04 04:25:18;;;;;;;21.10;6.97;;;12.20;99.90;;;;;;7299281;19;20185;-84
2024/02/04 04:27:44;;;;;;;18.43;6.97;;;12.20;99.90;;;;;;7304289;19;20188;-85
2024/02/04 04:30:10;;;;;;;20.90;7.27;;;12.30;99.90;;;;;;7283847;19;20198;-85
2024/02/04 04:32:36;;;;;;;19.10;6.50;;;12.20;99.90;;;;;;7283886;19;20211;-85
2024/02/04 04:35:02;;;;;;;16.90;6.70;;;12.30;99.90;;;;;;7283141;19;20212;-85
2024/02/04 04:37:28;;;;;;;20.50;7.33;;;12.30;99.90;;;;;;7281387;19;20206;-85
2024/02/04 04:39:53;;;;;;;20.73;7.33;;;12.30;99.90;;;;;;7286534;19;20190;-83
2024/02/04 04:42:19;;;;;;;21.03;7.50;;;12.30;99.90;;;;;;7292150;19;20198;-84
2024/02/04 04:44:45;;;;;;;21.23;6.70;;;12.30;99.90;;;;;;7314211;19;20303;-85
2024/02/04 04:47:11;;;;;;;25.40;7.70;;;12.20;99.90;;;;;;7284947;19;20191;-85
2024/02/04 04:49:36;;;;;;;21.50;7.57;;;12.20;99.90;;;;;;7283593;19;20191;-85
2024/02/04 04:52:02;;;;;;;21.83;7.20;;;12.00;99.90;;;;;;7282945;19;20256;-84
2024/02/04 04:54:28;;;;;;;23.43;8.57;;;12.00;99.90;;;;;;7284017;19;20192;-85
2024/02/04 04:56:54;;;;;;;24.80;8.07;;;12.00;99.90;;;;;;7282545;19;20205;-85
2024/02/04 04:59:20;;;;;;;20.70;8.13;;;12.10;99.90;;;;;;7284254;19;20177;-85
2024/02/04 05:01:47;;;;;;;23.90;8.47;;;12.20;99.90;;;;;;7305004;19;20545;-83
2024/02/04 05:04:13;;;;;;;21.07;8.37;;;12.20;99.90;;;;;;7295125;19;20247;-86
2024/02/04 05:06:39;;;;;;;25.40;8.43;;;12.20;99.90;;;;;;7289156;19;20185;-85
2024/02/04 05:09:05;;;;;;;24.47;8.83;;;12.20;99.90;;;;;;7283717;19;20279;-85
2024/02/04 05:11:31;;;;;;;23.27;8.03;;;12.30;99.90;;;;;;7282558;19;20850;-85
2024/02/04 05:13:57;;;;;;;22.30;8.10;;;12.30;99.90;;;;;;7284266;19;20210;-85
2024/02/04 05:16:22;;;;;;;24.80;8.07;;;12.30;99.90;;;;;;7281589;19;20641;-85
2024/02/04 05:18:48;;;;;;;22.83;8.13;;;12.30;99.90;;;;;;7297818;19;20186;-85
2024/02/04 05:21:14;;;;;;;21.30;8.10;;;12.30;99.90;;;;;;7297008;19;20197;-85
2024/02/04 05:23:40;;;;;;;21.80;7.93;;;12.20;99.90;;;;;;7281142;19;20298;-86
2024/02/04 05:26:06;;;;;;;25.93;7.80;;;12.10;99.90;;;;;;7283120;19;20185;-85
2024/02/04 05:28:32;;;;;;;22.50;7.73;;;12.10;99.90;;;;;;7281470;19;20214;-85
2024/02/04 05:30:58;;;;;;;21.90;7.17;;;12.10;99.90;;;;;;7283135;19;20195;-86
2024/02/04 05:33:24;;;;;;;22.73;7.40;;;12.20;99.90;;;;;;7281586;19;20293;-85
2024/02/04 05:35:50;;;;;;;19.53;7.47;;;12.10;99.90;;;;;;7280986;19;20644;-86
2024/02/04 05:38:18;;;;;;;18.50;7.50;;;12.10;99.90;;;;;;7306033;19;20224;-85
2024/02/04 05:40:44;;;;;;;21.73;7.87;;;12.10;99.90;;;;;;7283621;19;20181;-86
2024/02/04 05:43:10;;;;;;;19.80;7.50;;;12.20;99.90;;;;;;7282382;19;20202;-85
2024/02/04 05:45:40;;;;;;;19.87;7.40;;;12.10;99.90;;;;;;7294035;19;20215;-84
2024/02/04 05:48:07;;;;;;;22.37;8.10;;;12.20;99.90;;;;;;7300127;19;20210;-85
2024/02/04 05:50:33;;;;;;;20.67;8.30;;;12.10;99.90;;;;;;7300566;19;20217;-85
2024/02/04 05:52:59;;;;;;;26.30;9.20;;;12.10;99.90;;;;;;7297609;19;20197;-85
2024/02/04 05:55:24;;;;;;;20.67;9.60;;;12.00;99.90;;;;;;7300574;19;20213;-85
2024/02/04 05:57:50;;;;;;;28.03;9.70;;;12.00;99.90;;;;;;7304580;19;20210;-84
2024/02/04 06:00:16;;;;;;;28.80;9.00;;;12.00;99.90;;;;;;7316027;19;20193;-84
2024/02/04 06:02:43;;;;;;;20.97;8.63;;;11.80;99.90;;;;;;7291465;19;20202;-85
2024/02/04 06:05:09;;;;;;;23.73;9.10;;;11.80;99.90;;;;;;7291331;19;20198;-84
2024/02/04 06:07:35;;;;;;;28.40;10.27;;;11.70;99.90;;;;;;7288491;19;20194;-85
2024/02/04 06:10:03;;;;;;;23.90;9.83;;;11.70;99.90;;;;;;7288264;19;20189;-84
2024/02/04 06:12:29;;;;;;;26.13;9.70;;;11.80;99.90;;;;;;7288475;19;20200;-85
2024/02/04 06:14:55;;;;;;;23.07;9.03;;;11.90;99.90;;;;;;7288457;19;20189;-84
2024/02/04 06:17:21;;;;;;;22.03;8.97;;;11.80;99.90;;;;;;7286975;19;20580;-85
2024/02/04 06:19:47;;;;;;;21.47;8.97;;;11.80;99.90;;;;;;7307551;19;20193;-85
2024/02/04 06:22:13;;;;;;;28.77;9.77;;;11.80;99.90;;;;;;7287390;19;20190;-85
2024/02/04 06:24:40;;;;;;;29.13;9.87;;;11.80;99.90;;;;;;7288949;19;20186;-85
2024/02/04 06:27:10;;;;;;;26.57;9.97;;;11.90;99.90;;;;;;7285729;19;20214;-84
2024/02/04 06:29:37;;;;;;;25.73;10.57;;;11.80;99.90;;;;;;7287743;19;20197;-83
2024/02/04 06:32:03;;;;;;;25.57;9.97;;;11.90;99.90;;;;;;7290221;19;20200;-84
2024/02/04 06:34:29;;;;;;;25.77;10.00;;;11.90;99.90;;;;;;7295956;19;20192;-85
2024/02/04 06:36:54;;;;;;;26.10;10.50;;;11.90;99.90;;;;;;7287382;19;20199;-85
2024/02/04 06:39:20;;;;;;;26.30;10.40;;;11.90;99.90;;;;;;7288179;19;20185;-84
2024/02/04 06:41:46;;;;;;;24.67;9.37;;;11.90;99.90;;;;;;7307826;19;20260;-83
2024/02/04 06:44:12;;;;;;;25.33;9.63;;;11.90;99.90;;;;;;7282838;19;20185;-85
2024/02/04 06:46:37;;;;;;;25.17;10.00;;;12.00;99.90;;;;;;7286885;19;20671;-84
2024/02/04 06:49:03;;;;;;;23.33;9.07;;;11.90;99.90;;;;;;7291878;19;20222;-85
2024/02/04 06:51:29;;;;;;;24.27;9.53;;;11.90;99.90;;;;;;7292835;19;20204;-84
2024/02/04 06:53:55;;;;;;;27.43;9.60;;;11.90;99.90;;;;;;7288430;19;20543;-85
2024/02/04 06:56:20;;;;;;;24.77;9.00;;;11.80;99.90;;;;;;7286331;19;20676;-83
2024/02/04 06:58:46;;;;;;;20.37;8.70;;;11.80;99.90;;;;;;7308480;19;20185;-85
2024/02/04 07:01:12;;;;;;;23.77;9.17;;;11.90;99.90;;;;;;7286663;19;20203;-85
2024/02/04 07:03:38;;;;;;;21.70;9.23;;;11.80;99.90;;;;;;7287940;19;21169;-85
2024/02/04 07:06:04;;;;;;;21.13;9.40;;;11.80;99.90;;;;;;7288056;19;20183;-87
2024/02/04 07:08:30;;;;;;;22.80;9.63;;;11.90;99.90;;;;;;7285771;19;20193;-86
2024/02/04 07:10:55;;;;;;;23.30;9.60;;;11.90;99.90;;;;;;7286594;19;20670;-86
2024/02/04 07:13:21;;;;;;;29.97;10.40;;;11.80;99.90;;;;;;7284895;19;20254;-84
2024/02/04 07:15:49;;;;;;;25.50;10.20;;;11.90;99.90;;;;;;7307991;19;20229;-84
2024/02/04 07:18:16;;;;;;;25.87;10.23;;;11.90;99.90;;;;;;7289650;19;20189;-86
2024/02/04 07:20:42;;;;;;;24.13;10.47;;;11.90;99.90;;;;;;7288718;19;20674;-86
2024/02/04 07:23:08;;;;;;;28.60;11.33;;;11.90;99.90;;;;;;7286258;19;20740;-84
2024/02/04 07:25:35;;;;;;;27.63;10.73;;;11.90;99.90;;;;;;7287718;19;20573;-87
2024/02/04 07:28:01;;;;;;;25.60;10.17;;;11.90;99.90;;;;;;7288638;19;20203;-85
2024/02/04 07:30:26;;;;;;;23.33;10.57;;;11.80;99.90;;;;;;7290471;19;20291;-86
2024/02/04 07:32:52;;;;;;;28.80;11.50;;;11.90;99.90;;;;;;7296360;19;20213;-86
2024/02/04 07:35:18;;;;;;;29.03;10.63;;;11.80;99.90;;;;;;7337127;19;20231;-83
2024/02/04 07:37:44;;;;;;;27.17;10.53;;;11.80;99.90;;;;;;7291005;19;20208;-83
2024/02/04 07:40:10;;;;;;;28.17;10.57;;;11.70;99.90;;;;;;7285878;19;20182;-84
2024/02/04 07:42:35;;;;;;;28.43;11.40;;;11.80;99.90;;;;;;7285972;19;20187;-86
2024/02/04 07:45:08;;;;;;;29.37;11.57;;;11.80;99.90;;;;;;7283931;19;20193;-85
2024/02/04 07:47:34;;;;;;;24.37;10.57;;;11.90;99.90;;;;;;7287604;19;20200;-85
2024/02/04 07:50:00;;;;;;;26.50;10.87;;;12.00;99.90;;;;;;7284397;19;21012;-85
2024/02/04 07:52:26;;;;;;;26.67;10.37;;;11.90;99.90;;;;;;7286790;19;20268;-84
2024/02/04 07:54:52;;;;;;;26.27;10.53;;;11.90;99.90;;;;;;7286555;19;20252;-87
2024/02/04 07:57:17;;;;;;;23.27;10.80;;;12.00;99.90;;;;;;7307023;19;20535;-83
2024/02/04 07:59:43;;;;;;;23.90;10.93;;;12.10;99.90;;;;;;7291544;19;20772;-83
2024/02/04 08:02:09;;;;;;;24.10;10.40;;;12.00;99.90;;;;;;7296163;19;20190;-84
2024/02/04 08:04:34;;;;;;;26.57;11.73;;;12.00;99.90;;;;;;7284035;19;20200;-83
2024/02/04 08:07:00;;;;;;;25.33;10.83;;;11.90;99.90;;;;;;7286002;19;20223;-84
2024/02/04 08:09:26;;;;;;;30.17;11.30;;;11.80;99.90;;;;;;7283317;19;20189;-84
2024/02/04 08:11:52;;;;;;;29.60;10.83;;;11.90;99.90;;;;;;7282409;19;20192;-84
2024/02/04 08:14:18;;;;;;;28.97;10.50;;;12.00;99.90;;;;;;7305715;19;20205;-84
2024/02/04 08:16:46;;;;;;;26.13;10.70;;;12.00;99.90;;;;;;7286016;19;20193;-83
2024/02/04 08:19:13;;;;;;;26.20;10.90;;;12.00;99.90;;;;;;7285637;19;20225;-83
2024/02/04 08:21:39;;;;;;;20.10;9.57;;;12.00;99.90;;;;;;7285696;19;20206;-84
2024/02/04 08:24:05;;;;;;;27.57;11.47;;;12.10;99.90;;;;;;7282967;19;20659;-82
2024/02/04 08:26:31;;;;;;;22.30;10.37;;;12.00;99.90;;;;;;7283569;19;20530;-83
2024/02/04 08:28:57;;;;;;;21.97;10.57;;;12.00;99.90;;;;;;7282789;19;20270;-84
2024/02/04 08:31:22;;;;;;;22.93;10.63;;;12.00;99.90;;;;;;7284588;19;20263;-83
2024/02/04 08:33:48;;;;;;;22.77;11.53;;;12.00;99.90;;;;;;7305042;19;20238;-83
2024/02/04 08:36:14;;;;;;;27.87;11.20;;;12.10;99.90;;;;;;7293572;19;20197;-84
2024/02/04 08:38:40;;;;;;;29.20;16.80;;;12.20;99.90;;;;;;7284273;19;20208;-84
2024/02/04 08:41:07;;;;;;;22.43;10.13;;;12.30;99.90;;;;;;7280655;19;20202;-84
2024/02/04 08:43:32;;;;;;;20.97;9.73;;;12.40;99.90;;;;;;7283638;19;20648;-84
2024/02/04 08:45:58;;;;;;;15.37;8.53;;;12.50;99.90;;;;;;7283721;19;20355;-83
2024/02/04 08:48:24;;;;;;;11.97;5.80;;;12.60;99.90;;;;;;7282863;19;20269;-83
2024/02/04 08:50:50;;;;;;;13.30;5.23;;;12.60;99.90;;;;;;7287648;19;20264;-84
2024/02/04 08:53:15;;;;;;;14.40;5.03;;;12.50;99.90;;;;;;7309118;19;20188;-83
2024/02/04 08:55:43;;;;;;;10.27;4.20;;;12.50;99.90;;;;;;7286246;19;20193;-84
2024/02/04 08:58:08;;;;;;;15.10;4.17;;;12.50;99.90;;;;;;7286408;19;20202;-83
2024/02/04 09:00:34;;;;;;;12.87;4.30;;;12.60;99.90;;;;;;7286233;19;20193;-85
2024/02/04 09:03:00;;;;;;;11.20;3.70;;;12.60;99.90;;;;;;7283209;19;20204;-83
2024/02/04 09:05:26;;;;;;;8.80;3.20;;;12.70;99.90;;;;;;7285010;19;20193;-83
2024/02/04 09:07:51;;;;;;;10.33;3.20;;;12.50;99.90;;;;;;7283189;19;20254;-83
2024/02/04 09:10:17;;;;;;;15.07;4.67;;;12.40;99.90;;;;;;7307041;19;20197;-84
2024/02/04 09:12:43;;;;;;;8.80;3.20;;;12.40;99.90;;;;;;7282394;19;20183;-84
2024/02/04 09:15:08;;;;;;;9.33;3.20;;;12.50;99.90;;;;;;7284253;19;20756;-84
2024/02/04 09:17:34;;;;;;;11.53;3.27;;;12.70;99.90;;;;;;7282759;19;20189;-84
2024/02/04 09:20:00;;;;;;;7.70;2.87;;;12.70;99.90;;;;;;7283052;19;20225;-84
2024/02/04 09:22:26;;;;;;;10.07;2.80;;;12.50;99.90;;;;;;7305464;19;20181;-83
2024/02/04 09:24:52;;;;;;;6.93;2.97;;;12.50;99.90;;;;;;7319615;19;20197;-83
2024/02/04 09:27:17;;;;;;;9.40;2.90;;;12.50;99.90;;;;;;7315638;19;20199;-85
2024/02/04 09:29:43;;;;;;;7.63;2.60;;;12.70;99.90;;;;;;7301384;19;21011;-83
2024/02/04 09:32:09;;;;;;;7.33;2.47;;;12.80;99.90;;;;;;7292905;19;20198;-84
2024/02/04 09:34:35;;;;;;;8.33;2.53;;;12.80;99.90;;;;;;7288300;19;20200;-84
2024/02/04 09:37:02;;;;;;;7.73;2.20;;;12.80;99.90;;;;;;7289556;19;20191;-84
2024/02/04 09:39:29;;;;;;;9.80;2.63;;;12.70;99.90;;;;;;7289839;19;20189;-85
2024/02/04 09:41:55;;;;;;;6.03;2.30;;;12.80;99.90;;;;;;7288283;19;20184;-84
2024/02/04 09:44:23;;;;;;;7.87;2.40;;;12.80;99.90;;;;;;7289761;19;20563;-84
2024/02/04 09:46:50;;;;;;;7.17;2.73;;;12.80;99.90;;;;;;7304863;19;20193;-83
2024/02/04 09:49:16;;;;;;;9.67;3.30;;;12.80;99.90;;;;;;7310925;19;20191;-84
2024/02/04 09:51:43;;;;;;;9.10;3.33;;;12.60;99.90;;;;;;7289129;19;20188;-83
2024/02/04 09:54:10;;;;;;;8.53;3.23;;;12.60;99.90;;;;;;7288511;19;20198;-84
2024/02/04 09:56:37;;;;;;;7.97;3.80;;;12.60;99.90;;;;;;7286448;19;20194;-84
2024/02/04 09:59:04;;;;;;;8.67;3.87;;;12.60;99.90;;;;;;7285418;19;20188;-84
2024/02/04 10:01:31;;;;;;;9.97;4.30;;;12.70;99.90;;;;;;7284262;19;20226;-84
2024/02/04 10:03:58;;;;;;;10.97;4.47;;;12.70;99.90;;;;;;7288144;19;20190;-84
2024/02/04 10:06:24;;;;;;;9.53;4.13;;;12.70;99.90;;;;;;7288295;19;20293;-84
2024/02/04 10:08:50;;;;;;;10.93;4.30;;;12.80;99.90;;;;;;7294326;19;20185;-84
2024/02/04 10:11:16;;;;;;;9.77;4.60;;;12.70;99.90;;;;;;7308890;19;20297;-84
2024/02/04 10:13:47;;;;;;;8.87;3.87;;;12.60;99.90;;;;;;7287498;19;20221;-81
2024/02/04 10:16:16;;;;;;;9.90;3.83;;;12.60;99.90;;;;;;7288479;19;20191;-83
2024/02/04 10:18:48;;;;;;;8.70;3.57;;;12.50;99.90;;;;;;7288316;19;20185;-85
2024/02/04 10:21:19;;;;;;;7.77;3.40;;;12.50;99.90;;;;;;7287856;19;20188;-84
2024/02/04 10:23:45;;;;;;;8.33;3.37;;;12.70;99.90;;;;;;7289483;19;20211;-82
2024/02/04 10:26:11;;;;;;;7.80;2.93;;;12.80;99.90;;;;;;7293262;19;20294;-83
2024/02/04 10:28:39;;;;;;;6.97;2.67;;;13.00;99.90;;;;;;7298720;19;20500;-85
2024/02/04 10:31:11;;;;;;;10.07;3.30;;;13.00;99.90;;;;;;7288174;19;20252;-84
2024/02/04 10:33:37;;;;;;;10.70;2.60;;;13.00;99.90;;;;;;7285813;19;20188;-84
2024/02/04 10:36:04;;;;;;;10.30;2.53;;;13.10;99.90;;;;;;7286594;19;20212;-83
2024/02/04 10:38:31;;;;;;;7.80;2.57;;;13.10;99.90;;;;;;7285796;19;20249;-83
2024/02/04 10:41:01;;;;;;;6.63;2.30;;;13.10;99.90;;;;;;7288057;19;20192;-83
2024/02/04 10:43:32;;;;;;;7.67;2.63;;;13.20;99.90;;;;;;7288678;19;20200;-83
2024/02/04 10:46:04;;;;;;;7.27;2.20;;;13.20;99.90;;;;;;7289184;19;20193;-83
2024/02/04 10:48:41;;;;;;;8.43;2.40;;;13.10;99.90;;;;;;7282063;19;20190;-83
2024/02/04 10:51:14;;;;;;;6.83;1.90;;;13.20;99.90;;;;;;7287316;19;20219;-82
2024/02/04 10:53:44;;;;;;;5.20;2.00;;;13.20;99.90;;;;;;7288742;19;20193;-83
2024/02/04 10:56:41;;;;;;;7.67;1.90;;;13.10;99.90;;;;;;7290944;19;20287;-81
2024/02/04 10:59:09;;;;;;;4.87;1.77;;;12.90;99.90;;;;;;7186451;19;2005320;-82
2024/02/04 11:01:36;;;;;;;6.87;2.43;;;12.90;99.90;;;;;;7286736;19;20189;-85
2024/02/04 11:04:03;;;;;;;2.60;1.50;;;13.10;99.90;;;;;;7287095;19;20201;-83
2024/02/04 11:06:30;;;;;;;9.60;2.00;;;13.20;99.90;;;;;;7286053;19;20546;-82
2024/02/04 11:08:58;;;;;;;6.50;1.67;;;13.20;99.90;;;;;;7274861;19;20189;-83
2024/02/04 11:11:26;;;;;;;3.93;1.60;;;13.10;99.90;;;;;;7282988;19;20197;-84
2024/02/04 11:13:56;;;;;;;3.87;1.60;;;13.10;99.90;;;;;;7285164;19;20209;-84
2024/02/04 11:16:49;;;;;;;3.53;1.87;;;13.10;99.90;;;;;;7285424;19;20191;-83
2024/02/04 11:19:45;;;;;;;4.80;1.37;;;13.20;99.90;;;;;;7287539;19;20186;-84
2024/02/04 11:22:30;;;;;;;7.27;2.30;;;13.20;99.90;;;;;;7182694;19;2004920;-84
2024/02/04 11:25:10;;;;;;;6.70;2.10;;;13.30;99.90;;;;;;7184212;19;2005010;-83
2024/02/04 11:27:36;;;;;;;5.00;1.70;;;13.30;99.90;;;;;;7284830;19;20210;-84
2024/02/04 11:30:04;;;;;;;4.97;1.40;;;13.40;99.90;;;;;;7285688;19;20194;-84
2024/02/04 11:32:31;;;;;;;4.37;2.00;;;13.30;99.90;;;;;;7285508;19;20652;-84
2024/02/04 11:35:01;;;;;;;4.33;1.43;;;13.20;99.90;;;;;;7287090;19;20721;-81
2024/02/04 11:37:27;;;;;;;5.57;2.17;;;13.00;99.90;;;;;;7278017;19;20761;-83
2024/02/04 11:39:57;;;;;;;5.50;1.63;;;13.00;99.90;;;;;;7280942;19;20188;-83
2024/02/04 11:42:23;;;;;;;7.07;1.80;;;13.00;99.90;;;;;;7284610;19;20197;-83
2024/02/04 11:45:12;;;;;;;5.90;1.77;;;13.00;99.90;;;;;;7295399;19;20195;-81
2024/02/04 11:47:38;;;;;;;4.07;1.80;;;13.10;99.90;;;;;;7284304;19;20228;-82
2024/02/04 11:50:06;;;;;;;5.70;2.10;;;13.10;99.90;;;;;;7285168;19;20652;-82
2024/02/04 11:52:31;;;;;;;8.10;2.40;;;13.10;99.90;;;;;;7282446;19;20289;-82
2024/02/04 11:54:57;;;;;;;4.63;1.70;;;13.20;99.90;;;;;;7284816;19;20948;-83
2024/02/04 11:57:24;;;;;;;5.93;1.90;;;13.30;99.90;;;;;;7285310;19;20219;-82
2024/02/04 11:59:52;;;;;;;6.07;2.07;;;13.20;99.90;;;;;;7300865;19;20195;-81
2024/02/04 12:02:19;;;;;;;6.73;2.00;;;13.00;99.90;;;;;;7306357;19;20190;-83
2024/02/04 12:04:46;;;;;;;4.10;1.90;;;13.00;99.90;;;;;;7285039;19;20977;-83
2024/02/04 12:07:14;;;;;;;4.97;1.90;;;13.10;99.90;;;;;;7283176;19;20190;-83
2024/02/04 12:09:40;;;;;;;6.87;2.03;;;13.00;99.90;;;;;;7283217;19;20247;-82
2024/02/04 12:12:07;;;;;;;7.57;2.30;;;13.00;99.90;;;;;;7285202;19;20189;-82
2024/02/04 12:14:35;;;;;;;4.97;2.20;;;13.10;99.90;;;;;;7282415;19;20193;-83
2024/02/04 12:17:09;;;;;;;6.00;2.40;;;13.20;99.90;;;;;;7281161;19;20225;-80
2024/02/04 12:19:38;;;;;;;5.60;2.33;;;13.20;99.90;;;;;;7283899;19;20192;-82
2024/02/04 12:22:09;;;;;;;5.37;2.73;;;13.20;99.90;;;;;;7281813;19;20192;-81
2024/02/04 12:24:36;;;;;;;6.73;2.30;;;13.20;99.90;;;;;;7287379;19;20201;-82
2024/02/04 12:27:04;;;;;;;4.83;2.60;;;13.10;99.90;;;;;;7284068;19;20322;-81
2024/02/04 12:29:30;;;;;;;6.63;3.83;;;13.20;99.90;;;;;;7283312;19;20201;-81
2024/02/04 12:32:03;;;;;;;6.67;3.90;;;13.30;99.90;;;;;;7281997;19;20534;-80
2024/02/04 12:34:30;;;;;;;8.10;4.43;;;13.40;99.90;;;;;;7280640;19;20759;-81
2024/02/04 12:37:00;;;;;;;7.07;3.20;;;13.40;99.90;;;;;;7281412;19;20654;-81
2024/02/04 12:39:26;;;;;;;4.17;3.03;;;13.40;99.90;;;;;;7280954;19;21056;-81